createdAt,value
2022-10-10T00:01:29.174Z,7.86
2022-10-10T00:03:56.220Z,7.84
2022-10-10T00:06:23.836Z,7.84
2022-10-10T00:08:51.407Z,7.79
2022-10-10T00:11:20.940Z,7.74
2022-10-10T00:13:48.557Z,7.71
2022-10-10T00:16:16.398Z,7.69
2022-10-10T00:18:43.973Z,7.67
2022-10-10T00:21:11.389Z,7.65
2022-10-10T00:23:38.448Z,7.64
2022-10-10T00:26:09.067Z,7.66
2022-10-10T00:28:38.702Z,7.64
2022-10-10T00:31:07.266Z,7.63
2022-10-10T00:33:35.289Z,7.64
2022-10-10T00:36:02.295Z,7.66
2022-10-10T00:38:29.398Z,7.69
2022-10-10T00:40:56.696Z,7.68
2022-10-10T00:43:26.761Z,7.65
2022-10-10T00:45:54.144Z,7.73
2022-10-10T00:48:25.958Z,7.79
2022-10-10T00:50:59.410Z,7.81
2022-10-10T00:53:32.378Z,7.82
2022-10-10T00:56:01.643Z,7.84
2022-10-10T00:58:29.119Z,7.84
2022-10-10T01:00:56.793Z,7.85
2022-10-10T01:03:24.136Z,7.84
2022-10-10T01:05:51.631Z,7.84
2022-10-10T01:08:20.087Z,7.88
2022-10-10T01:11:04.095Z,7.79
2022-10-10T01:13:46.903Z,7.91
2022-10-10T01:16:23.173Z,7.86
2022-10-10T01:19:24.053Z,7.92
2022-10-10T01:22:12.663Z,7.90
2022-10-10T01:25:12.373Z,7.90
2022-10-10T01:27:47.695Z,7.89
2022-10-10T01:30:18.698Z,7.86
2022-10-10T01:33:00.236Z,7.88
2022-10-10T01:35:48.676Z,7.89
2022-10-10T01:38:34.762Z,7.89
2022-10-10T01:41:16.029Z,7.88
2022-10-10T01:43:43.343Z,7.88
2022-10-10T01:46:16.335Z,7.89
2022-10-10T01:48:45.913Z,7.90
2022-10-10T01:51:44.219Z,7.91
2022-10-10T01:54:32.122Z,7.92
2022-10-10T01:57:24.867Z,7.91
2022-10-10T02:00:05.467Z,7.92
2022-10-10T02:02:59.538Z,7.92
2022-10-10T02:05:39.900Z,7.92
2022-10-10T02:08:11.617Z,7.92
2022-10-10T02:10:50.913Z,7.92
2022-10-10T02:13:18.375Z,7.82
2022-10-10T02:15:50.697Z,7.91
2022-10-10T02:18:21.427Z,7.89
2022-10-10T02:20:50.338Z,7.87
2022-10-10T02:23:20.620Z,7.91
2022-10-10T02:25:52.318Z,7.93
2022-10-10T02:28:40.228Z,7.93
2022-10-10T02:31:11.927Z,7.92
2022-10-10T02:33:56.476Z,7.91
2022-10-10T02:36:24.934Z,7.91
2022-10-10T02:38:53.930Z,7.91
2022-10-10T02:41:22.464Z,7.90
2022-10-10T02:43:51.241Z,7.91
2022-10-10T02:46:18.423Z,7.89
2022-10-10T02:48:45.707Z,7.80
2022-10-10T02:51:14.231Z,7.87
2022-10-10T02:53:41.249Z,7.86
2022-10-10T02:56:08.626Z,7.85
2022-10-10T02:58:35.745Z,7.82
2022-10-10T03:01:02.818Z,7.80
2022-10-10T03:03:30.439Z,7.78
2022-10-10T03:05:57.442Z,7.76
2022-10-10T03:08:24.574Z,7.73
2022-10-10T03:11:00.495Z,7.72
2022-10-10T03:13:28.190Z,7.71
2022-10-10T03:15:55.201Z,7.69
2022-10-10T03:18:22.845Z,7.67
2022-10-10T03:20:56.545Z,7.67
2022-10-10T03:23:25.878Z,7.67
2022-10-10T03:25:53.169Z,7.66
2022-10-10T03:28:21.139Z,7.64
2022-10-10T03:30:48.722Z,7.64
2022-10-10T03:33:15.705Z,7.63
2022-10-10T03:35:42.782Z,7.64
2022-10-10T03:38:11.370Z,7.62
2022-10-10T03:40:43.410Z,7.60
2022-10-10T03:43:13.621Z,7.59
2022-10-10T03:45:47.506Z,7.58
2022-10-10T03:48:14.778Z,7.56
2022-10-10T03:50:41.861Z,7.53
2022-10-10T03:53:09.358Z,7.53
2022-10-10T03:55:39.649Z,7.51
2022-10-10T03:58:06.664Z,7.51
2022-10-10T04:00:33.683Z,7.48
2022-10-10T04:03:06.044Z,7.47
2022-10-10T04:05:36.324Z,7.45
2022-10-10T04:08:04.086Z,7.43
2022-10-10T04:10:31.451Z,7.39
2022-10-10T04:12:59.210Z,7.37
2022-10-10T04:15:26.615Z,7.33
2022-10-10T04:17:53.727Z,7.30
2022-10-10T04:20:20.780Z,7.27
2022-10-10T04:22:48.041Z,7.22
2022-10-10T04:25:15.456Z,7.24
2022-10-10T04:27:43.852Z,7.22
2022-10-10T04:30:11.574Z,7.21
2022-10-10T04:32:39.214Z,7.19
2022-10-10T04:35:06.690Z,7.15
2022-10-10T04:37:34.517Z,7.17
2022-10-10T04:40:01.538Z,7.17
2022-10-10T04:42:28.659Z,7.18
2022-10-10T04:44:56.796Z,7.13
2022-10-10T04:47:24.003Z,7.13
2022-10-10T04:49:51.035Z,7.11
2022-10-10T04:52:18.008Z,7.08
2022-10-10T04:54:45.036Z,7.07
2022-10-10T04:57:12.066Z,7.05
2022-10-10T04:59:39.100Z,6.99
2022-10-10T05:02:06.264Z,6.96
2022-10-10T05:04:33.274Z,7.03
2022-10-10T05:07:00.572Z,7.01
2022-10-10T05:09:27.598Z,7.00
2022-10-10T05:11:54.645Z,7.00
2022-10-10T05:14:22.119Z,7.01
2022-10-10T05:16:49.236Z,7.00
2022-10-10T05:19:16.317Z,6.99
2022-10-10T05:21:43.353Z,6.96
2022-10-10T05:24:13.055Z,6.93
2022-10-10T05:26:43.280Z,6.91
2022-10-10T05:29:10.880Z,6.89
2022-10-10T05:31:37.888Z,6.85
2022-10-10T05:34:04.889Z,6.85
2022-10-10T05:36:31.905Z,6.83
2022-10-10T05:39:00.179Z,6.84
2022-10-10T05:41:27.203Z,6.84
2022-10-10T05:43:54.236Z,6.85
2022-10-10T05:46:24.505Z,6.85
2022-10-10T05:48:51.990Z,6.84
2022-10-10T05:51:20.007Z,6.83
2022-10-10T05:53:47.880Z,6.82
2022-10-10T05:56:16.978Z,6.81
2022-10-10T05:58:44.805Z,6.78
2022-10-10T06:01:12.247Z,6.80
2022-10-10T06:03:39.306Z,6.83
2022-10-10T06:06:07.149Z,6.80
2022-10-10T06:08:34.694Z,6.80
2022-10-10T06:11:04.109Z,6.80
2022-10-10T06:13:31.336Z,6.81
2022-10-10T06:15:59.932Z,6.77
2022-10-10T06:18:27.149Z,6.80
2022-10-10T06:20:54.187Z,6.81
2022-10-10T06:23:21.427Z,6.82
2022-10-10T06:25:54.253Z,6.80
2022-10-10T06:28:21.484Z,6.86
2022-10-10T06:30:50.343Z,6.88
2022-10-10T06:33:19.198Z,6.92
2022-10-10T06:35:48.497Z,6.96
2022-10-10T06:38:16.848Z,7.01
2022-10-10T06:40:44.585Z,7.04
2022-10-10T06:43:13.407Z,7.09
2022-10-10T06:45:42.959Z,7.12
2022-10-10T06:48:11.733Z,7.15
2022-10-10T06:50:39.133Z,7.11
2022-10-10T06:53:06.849Z,7.22
2022-10-10T06:55:33.913Z,7.31
2022-10-10T06:58:00.902Z,7.35
2022-10-10T07:00:27.924Z,7.40
2022-10-10T07:02:54.949Z,7.46
2022-10-10T07:05:22.322Z,7.55
2022-10-10T07:07:53.573Z,7.64
2022-10-10T07:10:20.619Z,7.75
2022-10-10T07:12:47.623Z,7.84
2022-10-10T07:15:14.716Z,7.96
2022-10-10T07:17:41.718Z,8.05
2022-10-10T07:20:09.571Z,8.19
2022-10-10T07:22:36.667Z,8.29
2022-10-10T07:25:03.846Z,8.36
2022-10-10T07:27:30.921Z,8.42
2022-10-10T07:29:57.925Z,8.52
2022-10-10T07:32:24.992Z,8.61
2022-10-10T07:34:52.472Z,8.69
2022-10-10T07:37:19.502Z,8.77
2022-10-10T07:39:46.523Z,8.84
2022-10-10T07:42:13.581Z,8.91
2022-10-10T07:44:40.559Z,8.99
2022-10-10T07:47:07.974Z,9.04
2022-10-10T07:49:35.005Z,9.12
2022-10-10T07:52:02.089Z,9.22
2022-10-10T07:54:30.344Z,9.29
2022-10-10T07:56:57.879Z,9.34
2022-10-10T07:59:26.220Z,9.37
2022-10-10T08:01:56.214Z,9.43
2022-10-10T08:04:26.182Z,9.48
2022-10-10T08:06:53.746Z,9.52
2022-10-10T08:09:20.719Z,9.57
2022-10-10T08:11:47.779Z,9.63
2022-10-10T08:14:14.837Z,9.72
2022-10-10T08:16:41.872Z,9.80
2022-10-10T08:19:10.127Z,9.92
2022-10-10T08:21:37.581Z,10.04
2022-10-10T08:24:04.831Z,10.17
2022-10-10T08:26:31.853Z,10.33
2022-10-10T08:28:58.898Z,10.50
2022-10-10T08:31:26.020Z,10.65
2022-10-10T08:33:57.170Z,10.84
2022-10-10T08:36:24.760Z,11.00
2022-10-10T08:38:57.011Z,11.15
2022-10-10T08:41:39.869Z,11.30
2022-10-10T08:44:16.496Z,11.49
2022-10-10T08:47:18.324Z,11.62
2022-10-10T08:49:59.436Z,11.71
2022-10-10T08:52:40.748Z,11.71
2022-10-10T08:55:33.401Z,11.91
2022-10-10T08:58:10.817Z,12.03
2022-10-10T09:00:51.493Z,12.17
2022-10-10T09:03:41.710Z,12.26
2022-10-10T09:06:22.433Z,12.33
2022-10-10T09:09:19.726Z,12.41
2022-10-10T09:11:57.478Z,12.45
2022-10-10T09:14:45.139Z,12.49
2022-10-10T09:17:48.232Z,12.57
2022-10-10T09:20:24.125Z,12.62
2022-10-10T09:23:01.864Z,12.63
2022-10-10T09:25:35.871Z,12.65
2022-10-10T09:28:20.143Z,12.72
2022-10-10T09:30:54.588Z,12.74
2022-10-10T09:33:38.109Z,12.72
2022-10-10T09:36:10.755Z,12.76
2022-10-10T09:38:44.222Z,12.69
2022-10-10T09:41:34.961Z,12.71
2022-10-10T09:44:07.392Z,12.78
2022-10-10T09:46:34.456Z,12.78
2022-10-10T09:49:01.692Z,12.81
2022-10-10T09:51:30.631Z,12.83
2022-10-10T09:53:57.680Z,12.80
2022-10-10T09:56:28.286Z,12.87
2022-10-10T09:58:56.011Z,12.88
2022-10-10T10:01:30.983Z,12.94
2022-10-10T10:04:30.159Z,13.00
2022-10-10T10:07:27.820Z,13.05
2022-10-10T10:10:00.429Z,13.16
2022-10-10T10:12:30.285Z,13.19
2022-10-10T10:15:04.205Z,13.28
2022-10-10T10:17:31.328Z,13.36
2022-10-10T10:19:58.604Z,13.43
2022-10-10T10:22:35.278Z,13.49
2022-10-10T10:25:31.630Z,13.50
2022-10-10T10:28:10.965Z,13.49
2022-10-10T10:30:39.999Z,13.53
2022-10-10T10:33:10.725Z,13.57
2022-10-10T10:35:46.681Z,13.63
2022-10-10T10:38:37.673Z,13.70
2022-10-10T10:41:35.504Z,13.79
2022-10-10T10:44:27.101Z,13.84
2022-10-10T10:47:19.369Z,13.94
2022-10-10T10:50:23.922Z,14.05
2022-10-10T10:53:10.755Z,14.21
2022-10-10T10:55:46.758Z,14.28
2022-10-10T10:59:30.414Z,14.35
2022-10-10T11:01:59.143Z,14.52
2022-10-10T11:05:24.438Z,14.64
2022-10-10T11:07:30.054Z,14.78
2022-10-10T11:10:30.399Z,14.84
2022-10-10T11:13:12.532Z,14.80
2022-10-10T11:16:05.608Z,14.84
2022-10-10T11:18:37.508Z,14.82
2022-10-10T11:21:12.709Z,14.77
2022-10-10T11:23:47.296Z,14.83
2022-10-10T11:26:26.054Z,14.83
2022-10-10T11:29:04.341Z,14.85
2022-10-10T11:31:44.379Z,14.91
2022-10-10T11:34:22.454Z,14.88
2022-10-10T11:36:52.530Z,14.90
2022-10-10T11:39:27.277Z,14.94
2022-10-10T11:41:59.128Z,14.97
2022-10-10T11:44:31.522Z,14.95
2022-10-10T11:47:19.438Z,14.95
2022-10-10T11:50:00.943Z,14.98
2022-10-10T11:52:37.657Z,14.95
2022-10-10T11:55:24.333Z,14.95
2022-10-10T11:57:57.377Z,14.84
2022-10-10T12:00:26.038Z,14.84
2022-10-10T12:02:53.313Z,14.78
2022-10-10T12:05:22.116Z,14.86
2022-10-10T12:07:57.873Z,14.78
2022-10-10T12:10:32.382Z,14.76
2022-10-10T12:13:19.058Z,14.66
2022-10-10T12:15:51.205Z,14.64
2022-10-10T12:18:27.946Z,14.57
2022-10-10T12:21:31.091Z,14.56
2022-10-10T12:24:12.882Z,14.44
2022-10-10T12:26:54.680Z,14.36
2022-10-10T12:29:40.117Z,14.29
2022-10-10T12:32:27.705Z,14.19
2022-10-10T12:35:00.917Z,14.22
2022-10-10T12:37:27.941Z,14.20
2022-10-10T12:40:06.985Z,14.25
2022-10-10T12:43:04.652Z,14.27
2022-10-10T12:45:31.642Z,14.25
2022-10-10T12:48:07.266Z,14.19
2022-10-10T12:50:38.104Z,14.21
2022-10-10T12:53:16.696Z,14.22
2022-10-10T12:55:49.988Z,14.15
2022-10-10T12:58:39.435Z,14.11
2022-10-10T13:01:20.792Z,14.07
2022-10-10T13:03:50.069Z,13.97
2022-10-10T13:06:42.716Z,13.84
2022-10-10T13:09:16.679Z,13.75
2022-10-10T13:11:55.002Z,13.63
2022-10-10T13:14:23.213Z,13.61
2022-10-10T13:16:50.394Z,13.61
2022-10-10T13:19:23.651Z,13.58
2022-10-10T13:21:53.247Z,13.58
2022-10-10T13:24:28.883Z,13.55
2022-10-10T13:26:55.936Z,13.54
2022-10-10T13:29:34.328Z,13.53
2022-10-10T13:32:24.034Z,13.53
2022-10-10T13:34:58.134Z,13.55
2022-10-10T13:37:26.069Z,13.57
2022-10-10T13:39:56.073Z,13.55
2022-10-10T13:42:38.114Z,13.53
2022-10-10T13:45:30.181Z,13.51
2022-10-10T13:48:00.251Z,13.25
2022-10-10T13:50:29.325Z,12.78
2022-10-10T13:53:31.636Z,12.37
2022-10-10T13:56:02.183Z,12.21
2022-10-10T13:58:39.126Z,11.97
2022-10-10T14:01:06.765Z,11.85
2022-10-10T14:03:34.318Z,11.73
2022-10-10T14:06:01.346Z,11.67
2022-10-10T14:08:33.194Z,11.64
2022-10-10T14:11:06.951Z,11.64
2022-10-10T14:13:36.311Z,11.66
2022-10-10T14:16:23.385Z,11.64
2022-10-10T14:18:50.416Z,11.58
2022-10-10T14:21:17.454Z,11.57
2022-10-10T14:23:44.442Z,11.54
2022-10-10T14:26:20.937Z,11.56
2022-10-10T14:28:48.138Z,11.55
2022-10-10T14:31:15.245Z,11.59
2022-10-10T14:33:42.329Z,11.53
2022-10-10T14:36:12.253Z,11.50
2022-10-10T14:38:39.286Z,11.56
2022-10-10T14:41:06.919Z,11.57
2022-10-10T14:43:34.315Z,11.60
2022-10-10T14:46:02.090Z,11.64
2022-10-10T14:48:29.087Z,11.67
2022-10-10T14:50:57.316Z,11.72
2022-10-10T14:53:24.542Z,11.83
2022-10-10T14:55:56.106Z,11.92
2022-10-10T14:58:23.609Z,11.96
2022-10-10T15:00:52.334Z,12.03
2022-10-10T15:03:19.448Z,11.99
2022-10-10T15:05:48.493Z,12.05
2022-10-10T15:08:18.313Z,12.08
2022-10-10T15:10:45.950Z,12.06
2022-10-10T15:13:13.746Z,12.14
2022-10-10T15:15:41.563Z,12.12
2022-10-10T15:18:25.652Z,12.08
2022-10-10T15:20:55.896Z,12.13
2022-10-10T15:23:23.488Z,12.21
2022-10-10T15:25:50.516Z,12.29
2022-10-10T15:28:17.611Z,12.30
2022-10-10T15:30:46.116Z,12.34
2022-10-10T15:33:13.285Z,12.43
2022-10-10T15:36:07.293Z,12.42
2022-10-10T15:38:28.632Z,12.43
2022-10-10T15:41:01.133Z,12.50
2022-10-10T15:43:28.942Z,12.45
2022-10-10T15:45:58.754Z,12.47
2022-10-10T15:48:26.255Z,12.48
2022-10-10T15:50:56.172Z,12.45
2022-10-10T15:53:28.426Z,12.51
2022-10-10T15:55:58.029Z,12.53
2022-10-10T15:58:25.120Z,12.51
2022-10-10T16:00:52.688Z,12.49
2022-10-10T16:03:19.754Z,12.46
2022-10-10T16:05:46.885Z,12.43
2022-10-10T16:08:14.072Z,12.43
2022-10-10T16:10:43.024Z,12.36
2022-10-10T16:13:11.945Z,12.32
2022-10-10T16:15:38.925Z,12.28
2022-10-10T16:18:05.946Z,12.25
2022-10-10T16:20:33.007Z,12.10
2022-10-10T16:23:00.250Z,12.05
2022-10-10T16:25:27.370Z,12.06
2022-10-10T16:27:54.439Z,11.94
2022-10-10T16:30:21.614Z,11.90
2022-10-10T16:32:49.838Z,11.82
2022-10-10T16:35:16.980Z,11.77
2022-10-10T16:37:44.025Z,11.69
2022-10-10T16:40:11.758Z,11.65
2022-10-10T16:42:38.878Z,11.50
2022-10-10T16:45:06.568Z,11.48
2022-10-10T16:47:33.786Z,11.35
2022-10-10T16:50:01.028Z,11.32
2022-10-10T16:52:28.119Z,11.20
2022-10-10T16:54:55.135Z,11.15
2022-10-10T16:57:22.542Z,11.08
2022-10-10T16:59:49.538Z,11.02
2022-10-10T17:02:16.649Z,10.95
2022-10-10T17:04:43.638Z,10.89
2022-10-10T17:07:13.526Z,10.84
2022-10-10T17:09:41.248Z,10.79
2022-10-10T17:12:08.234Z,10.66
2022-10-10T17:14:35.308Z,10.67
2022-10-10T17:17:17.720Z,10.61
2022-10-10T17:19:44.892Z,10.55
2022-10-10T17:22:11.889Z,10.45
2022-10-10T17:24:38.964Z,10.38
2022-10-10T17:27:06.140Z,10.30
2022-10-10T17:29:33.935Z,10.26
2022-10-10T17:32:06.044Z,10.12
2022-10-10T17:34:33.620Z,10.14
2022-10-10T17:37:00.926Z,10.10
2022-10-10T17:39:27.996Z,10.00
2022-10-10T17:41:55.052Z,10.01
2022-10-10T17:44:23.559Z,9.96
2022-10-10T17:46:50.642Z,9.91
2022-10-10T17:49:19.358Z,9.86
2022-10-10T17:51:46.382Z,9.84
2022-10-10T17:54:13.493Z,9.79
2022-10-10T17:56:44.637Z,9.76
2022-10-10T17:59:12.257Z,9.76
2022-10-10T18:01:40.004Z,9.75
2022-10-10T18:04:07.458Z,9.72
2022-10-10T18:06:36.860Z,9.67
2022-10-10T18:09:03.912Z,9.65
2022-10-10T18:11:31.710Z,9.58
2022-10-10T18:14:01.787Z,9.54
2022-10-10T18:16:33.683Z,9.49
2022-10-10T18:19:02.025Z,9.44
2022-10-10T18:21:29.199Z,9.40
2022-10-10T18:23:57.017Z,9.31
2022-10-10T18:26:26.933Z,9.26
2022-10-10T18:28:55.993Z,9.22
2022-10-10T18:31:29.049Z,9.21
2022-10-10T18:33:57.099Z,9.18
2022-10-10T18:36:27.613Z,9.17
2022-10-10T18:38:58.053Z,9.18
2022-10-10T18:41:27.829Z,9.15
2022-10-10T18:43:56.153Z,9.16
2022-10-10T18:46:23.892Z,9.15
2022-10-10T18:48:54.081Z,9.13
2022-10-10T18:51:29.327Z,9.10
2022-10-10T18:54:00.898Z,9.10
2022-10-10T18:56:28.810Z,9.08
2022-10-10T18:58:58.885Z,9.08
2022-10-10T19:01:27.203Z,9.04
2022-10-10T19:03:56.003Z,9.02
2022-10-10T19:06:24.131Z,8.98
2022-10-10T19:08:53.688Z,8.89
2022-10-10T19:11:23.664Z,8.89
2022-10-10T19:13:51.890Z,8.89
2022-10-10T19:16:20.205Z,8.79
2022-10-10T19:18:47.370Z,8.84
2022-10-10T19:21:16.166Z,8.82
2022-10-10T19:23:44.080Z,8.75
2022-10-10T19:26:14.917Z,8.78
2022-10-10T19:28:43.044Z,8.76
2022-10-10T19:31:13.173Z,8.71
2022-10-10T19:33:41.649Z,8.66
2022-10-10T19:36:11.278Z,8.67
2022-10-10T19:38:40.977Z,8.66
2022-10-10T19:41:12.778Z,8.67
2022-10-10T19:43:41.024Z,8.61
2022-10-10T19:46:11.487Z,8.64
2022-10-10T19:48:38.674Z,8.64
2022-10-10T19:51:07.988Z,8.59
2022-10-10T19:53:36.004Z,8.58
2022-10-10T19:56:09.115Z,8.52
2022-10-10T19:58:37.653Z,8.42
2022-10-10T20:01:15.049Z,8.48
2022-10-10T20:03:42.790Z,8.46
2022-10-10T20:06:13.704Z,8.37
2022-10-10T20:08:42.026Z,8.37
2022-10-10T20:11:10.311Z,8.30
2022-10-10T20:13:37.694Z,8.30
2022-10-10T20:16:08.801Z,8.31
2022-10-10T20:18:38.369Z,8.28
2022-10-10T20:21:16.900Z,8.23
2022-10-10T20:23:45.576Z,8.25
2022-10-10T20:26:15.628Z,8.26
2022-10-10T20:28:42.909Z,8.24
2022-10-10T20:31:15.651Z,8.24
2022-10-10T20:33:43.353Z,8.30
2022-10-10T20:36:13.663Z,8.33
2022-10-10T20:38:41.283Z,8.40
2022-10-10T20:41:08.892Z,8.49
2022-10-10T20:43:38.160Z,8.54
2022-10-10T20:46:11.336Z,8.63
2022-10-10T20:48:38.650Z,8.68
2022-10-10T20:51:08.897Z,8.71
2022-10-10T20:53:37.116Z,8.73
2022-10-10T20:56:06.851Z,8.75
2022-10-10T20:58:35.920Z,8.77
2022-10-10T21:01:12.061Z,8.70
2022-10-10T21:03:40.144Z,8.71
2022-10-10T21:06:19.902Z,8.68
2022-10-10T21:08:47.233Z,8.63
2022-10-10T21:11:15.535Z,8.58
2022-10-10T21:13:54.241Z,8.51
2022-10-10T21:16:22.602Z,8.45
2022-10-10T21:18:57.427Z,8.32
2022-10-10T21:21:27.681Z,8.33
2022-10-10T21:23:56.390Z,8.29
2022-10-10T21:26:26.151Z,8.23
2022-10-10T21:28:57.177Z,8.13
2022-10-10T21:31:27.518Z,8.09
2022-10-10T21:33:55.339Z,7.99
2022-10-10T21:36:24.685Z,7.99
2022-10-10T21:38:53.690Z,7.98
2022-10-10T21:41:21.541Z,7.95
2022-10-10T21:43:55.040Z,7.90
2022-10-10T21:46:24.975Z,7.85
2022-10-10T21:48:52.559Z,7.82
2022-10-10T21:51:20.631Z,7.77
2022-10-10T21:53:48.207Z,7.66
2022-10-10T21:56:15.954Z,7.68
2022-10-10T21:58:45.082Z,7.63
2022-10-10T22:01:17.757Z,7.55
2022-10-10T22:03:47.015Z,7.51
2022-10-10T22:06:16.729Z,7.51
2022-10-10T22:08:44.611Z,7.48
2022-10-10T22:11:15.218Z,7.46
2022-10-10T22:13:42.253Z,7.44
2022-10-10T22:16:10.511Z,7.40
2022-10-10T22:18:38.434Z,7.36
2022-10-10T22:21:08.573Z,7.35
2022-10-10T22:23:36.241Z,7.35
2022-10-10T22:26:08.363Z,7.33
2022-10-10T22:28:36.006Z,7.31
2022-10-10T22:31:07.545Z,7.25
2022-10-10T22:33:34.741Z,7.22
2022-10-10T22:36:02.589Z,7.13
2022-10-10T22:38:30.125Z,7.12
2022-10-10T22:40:57.420Z,7.06
2022-10-10T22:43:26.940Z,6.93
2022-10-10T22:45:54.322Z,6.91
2022-10-10T22:48:21.429Z,6.88
2022-10-10T22:50:48.462Z,6.95
2022-10-10T22:53:15.455Z,6.94
2022-10-10T22:55:42.448Z,6.91
2022-10-10T22:58:10.286Z,6.93
2022-10-10T23:00:40.017Z,6.91
2022-10-10T23:03:07.095Z,6.87
2022-10-10T23:05:34.100Z,6.80
2022-10-10T23:08:01.151Z,6.76
2022-10-10T23:10:28.243Z,6.69
2022-10-10T23:12:55.242Z,6.64
2022-10-10T23:15:22.351Z,6.69
2022-10-10T23:17:49.321Z,6.61
2022-10-10T23:20:16.362Z,6.66
2022-10-10T23:22:43.371Z,6.62
2022-10-10T23:25:10.703Z,6.65
2022-10-10T23:27:37.719Z,6.61
2022-10-10T23:30:05.257Z,6.60
2022-10-10T23:32:32.285Z,6.55
2022-10-10T23:34:59.267Z,6.52
2022-10-10T23:37:27.885Z,6.45
2022-10-10T23:39:54.967Z,6.39
2022-10-10T23:42:22.518Z,6.43
2022-10-10T23:44:49.511Z,6.41
2022-10-10T23:47:16.559Z,6.35
2022-10-10T23:49:43.582Z,6.36
2022-10-10T23:52:10.815Z,6.36
2022-10-10T23:54:37.978Z,6.29
2022-10-10T23:57:05.019Z,6.19
2022-10-10T23:59:32.019Z,6.24
